sensor_id;sensor_type;location;lat;lon;timestamp;pressure;altitude;pressure_sealevel;temperature;humidity
39949;BME280;29070;48.102;-1.652;2022-12-07T00:02:33;101887.28;;;3.48;73.05
39949;BME280;29070;48.102;-1.652;2022-12-07T00:07:34;101871.84;;;3.35;73.13
39949;BME280;29070;48.102;-1.652;2022-12-07T00:12:34;101877.97;;;3.34;73.38
39949;BME280;29070;48.102;-1.652;2022-12-07T00:17:34;101867.38;;;3.26;73.54
39949;BME280;29070;48.102;-1.652;2022-12-07T00:22:35;101856.41;;;3.22;73.63
39949;BME280;29070;48.102;-1.652;2022-12-07T00:27:35;101855.00;;;3.18;73.66
39949;BME280;29070;48.102;-1.652;2022-12-07T00:32:35;101851.94;;;3.13;73.66
39949;BME280;29070;48.102;-1.652;2022-12-07T00:37:36;101854.84;;;3.09;73.72
39949;BME280;29070;48.102;-1.652;2022-12-07T00:42:36;101864.16;;;3.00;73.78
39949;BME280;29070;48.102;-1.652;2022-12-07T00:47:36;101861.47;;;2.90;73.98
39949;BME280;29070;48.102;-1.652;2022-12-07T00:52:37;101848.00;;;2.85;73.85
39949;BME280;29070;48.102;-1.652;2022-12-07T00:57:37;101857.69;;;2.83;73.91
39949;BME280;29070;48.102;-1.652;2022-12-07T01:02:37;101849.53;;;2.76;74.00
39949;BME280;29070;48.102;-1.652;2022-12-07T01:07:38;101863.53;;;2.62;73.81
39949;BME280;29070;48.102;-1.652;2022-12-07T01:12:38;101856.22;;;2.56;74.26
39949;BME280;29070;48.102;-1.652;2022-12-07T01:17:39;101856.75;;;2.48;74.04
39949;BME280;29070;48.102;-1.652;2022-12-07T01:22:40;101856.41;;;2.42;74.24
39949;BME280;29070;48.102;-1.652;2022-12-07T01:27:41;101851.44;;;2.39;74.08
39949;BME280;29070;48.102;-1.652;2022-12-07T01:32:42;101856.03;;;2.35;74.22
39949;BME280;29070;48.102;-1.652;2022-12-07T01:37:42;101852.13;;;2.29;74.23
39949;BME280;29070;48.102;-1.652;2022-12-07T01:42:42;101843.25;;;2.21;74.13
39949;BME280;29070;48.102;-1.652;2022-12-07T01:47:52;101855.81;;;2.14;74.37
39949;BME280;29070;48.102;-1.652;2022-12-07T01:52:56;101855.44;;;2.07;74.60
39949;BME280;29070;48.102;-1.652;2022-12-07T01:57:58;101861.88;;;2.02;74.64
39949;BME280;29070;48.102;-1.652;2022-12-07T02:03:34;101866.25;;;2.01;75.34
39949;BME280;29070;48.102;-1.652;2022-12-07T02:08:36;101868.72;;;2.03;74.88
39949;BME280;29070;48.102;-1.652;2022-12-07T02:13:38;101872.13;;;2.03;75.01
39949;BME280;29070;48.102;-1.652;2022-12-07T02:18:58;101869.06;;;1.98;74.95
39949;BME280;29070;48.102;-1.652;2022-12-07T02:24:30;101870.31;;;1.93;75.05
39949;BME280;29070;48.102;-1.652;2022-12-07T02:29:55;101870.66;;;1.88;74.76
39949;BME280;29070;48.102;-1.652;2022-12-07T02:35:09;101865.59;;;1.86;75.04
39949;BME280;29070;48.102;-1.652;2022-12-07T02:40:26;101865.19;;;1.80;74.90
39949;BME280;29070;48.102;-1.652;2022-12-07T02:45:30;101860.34;;;1.75;75.06
39949;BME280;29070;48.102;-1.652;2022-12-07T02:50:31;101877.84;;;1.71;75.18
39949;BME280;29070;48.102;-1.652;2022-12-07T02:55:38;101875.38;;;1.70;75.14
39949;BME280;29070;48.102;-1.652;2022-12-07T03:01:15;101879.09;;;1.66;75.48
39949;BME280;29070;48.102;-1.652;2022-12-07T03:06:28;101883.56;;;1.64;75.33
39949;BME280;29070;48.102;-1.652;2022-12-07T03:12:06;101871.88;;;1.58;75.35
39949;BME280;29070;48.102;-1.652;2022-12-07T03:17:12;101874.06;;;1.51;75.08
39949;BME280;29070;48.102;-1.652;2022-12-07T03:22:14;101881.22;;;1.48;74.92
39949;BME280;29070;48.102;-1.652;2022-12-07T03:27:28;101885.28;;;1.39;74.98
39949;BME280;29070;48.102;-1.652;2022-12-07T03:32:36;101872.78;;;1.33;74.83
39949;BME280;29070;48.102;-1.652;2022-12-07T03:37:50;101863.44;;;1.30;75.62
39949;BME280;29070;48.102;-1.652;2022-12-07T03:42:53;101862.84;;;1.27;75.07
39949;BME280;29070;48.102;-1.652;2022-12-07T03:53:37;101869.06;;;1.11;75.64
39949;BME280;29070;48.102;-1.652;2022-12-07T03:58:40;101863.09;;;1.11;75.04
39949;BME280;29070;48.102;-1.652;2022-12-07T04:03:41;101861.81;;;1.04;74.95
39949;BME280;29070;48.102;-1.652;2022-12-07T04:08:42;101876.72;;;1.00;75.38
39949;BME280;29070;48.102;-1.652;2022-12-07T04:13:42;101864.72;;;0.99;74.80
39949;BME280;29070;48.102;-1.652;2022-12-07T04:19:01;101862.53;;;0.93;75.04
39949;BME280;29070;48.102;-1.652;2022-12-07T04:24:01;101858.72;;;0.86;75.40
39949;BME280;29070;48.102;-1.652;2022-12-07T04:29:02;101862.44;;;0.82;75.12
39949;BME280;29070;48.102;-1.652;2022-12-07T04:34:03;101853.97;;;0.80;75.73
39949;BME280;29070;48.102;-1.652;2022-12-07T04:39:04;101849.84;;;0.77;75.06
39949;BME280;29070;48.102;-1.652;2022-12-07T04:44:05;101855.50;;;0.69;75.25
39949;BME280;29070;48.102;-1.652;2022-12-07T04:49:07;101849.81;;;0.64;75.91
39949;BME280;29070;48.102;-1.652;2022-12-07T04:54:08;101851.69;;;0.62;75.20
39949;BME280;29070;48.102;-1.652;2022-12-07T04:59:11;101847.56;;;0.60;75.46
39949;BME280;29070;48.102;-1.652;2022-12-07T05:04:11;101851.38;;;0.54;75.84
39949;BME280;29070;48.102;-1.652;2022-12-07T05:09:12;101859.22;;;0.52;75.56
39949;BME280;29070;48.102;-1.652;2022-12-07T05:14:17;101856.84;;;0.49;75.45
39949;BME280;29070;48.102;-1.652;2022-12-07T05:19:19;101851.88;;;0.46;75.93
39949;BME280;29070;48.102;-1.652;2022-12-07T05:24:19;101855.41;;;0.45;75.13
39949;BME280;29070;48.102;-1.652;2022-12-07T05:29:20;101858.38;;;0.39;75.85
39949;BME280;29070;48.102;-1.652;2022-12-07T05:34:20;101848.97;;;0.38;76.20
39949;BME280;29070;48.102;-1.652;2022-12-07T05:39:20;101831.50;;;0.29;75.86
39949;BME280;29070;48.102;-1.652;2022-12-07T05:44:21;101824.56;;;0.29;75.78
39949;BME280;29070;48.102;-1.652;2022-12-07T05:49:21;101842.84;;;0.26;75.64
39949;BME280;29070;48.102;-1.652;2022-12-07T05:54:21;101857.72;;;0.23;75.76
39949;BME280;29070;48.102;-1.652;2022-12-07T05:59:22;101860.38;;;0.21;76.14
39949;BME280;29070;48.102;-1.652;2022-12-07T06:04:25;101862.97;;;0.21;76.47
39949;BME280;29070;48.102;-1.652;2022-12-07T06:09:27;101858.66;;;0.22;75.88
39949;BME280;29070;48.102;-1.652;2022-12-07T06:14:27;101861.75;;;0.27;75.78
39949;BME280;29070;48.102;-1.652;2022-12-07T06:19:28;101871.69;;;0.33;76.17
39949;BME280;29070;48.102;-1.652;2022-12-07T06:24:28;101873.13;;;0.37;76.56
39949;BME280;29070;48.102;-1.652;2022-12-07T06:29:28;101875.44;;;0.42;76.24
39949;BME280;29070;48.102;-1.652;2022-12-07T06:34:29;101871.72;;;0.46;76.81
39949;BME280;29070;48.102;-1.652;2022-12-07T06:39:29;101874.09;;;0.49;76.22
39949;BME280;29070;48.102;-1.652;2022-12-07T06:44:30;101876.47;;;0.52;76.51
39949;BME280;29070;48.102;-1.652;2022-12-07T06:49:30;101883.81;;;0.58;76.60
39949;BME280;29070;48.102;-1.652;2022-12-07T06:54:31;101871.44;;;0.50;76.51
39949;BME280;29070;48.102;-1.652;2022-12-07T06:59:31;101884.03;;;0.55;76.29
39949;BME280;29070;48.102;-1.652;2022-12-07T07:04:31;101884.13;;;0.53;76.59
39949;BME280;29070;48.102;-1.652;2022-12-07T07:09:32;101885.16;;;0.51;76.47
39949;BME280;29070;48.102;-1.652;2022-12-07T07:14:32;101881.84;;;0.49;76.93
39949;BME280;29070;48.102;-1.652;2022-12-07T07:19:33;101883.28;;;0.53;76.32
39949;BME280;29070;48.102;-1.652;2022-12-07T07:24:33;101882.91;;;0.59;77.08
39949;BME280;29070;48.102;-1.652;2022-12-07T07:29:33;101881.25;;;0.58;76.17
39949;BME280;29070;48.102;-1.652;2022-12-07T07:34:34;101876.28;;;0.55;77.17
39949;BME280;29070;48.102;-1.652;2022-12-07T07:39:34;101895.06;;;0.57;76.82
39949;BME280;29070;48.102;-1.652;2022-12-07T07:44:34;101892.31;;;0.60;76.67
39949;BME280;29070;48.102;-1.652;2022-12-07T07:49:35;101897.28;;;0.63;76.71
39949;BME280;29070;48.102;-1.652;2022-12-07T07:54:35;101889.28;;;0.53;76.37
39949;BME280;29070;48.102;-1.652;2022-12-07T07:59:36;101882.91;;;0.59;76.52
39949;BME280;29070;48.102;-1.652;2022-12-07T08:04:36;101883.63;;;0.61;77.18
39949;BME280;29070;48.102;-1.652;2022-12-07T08:09:37;101894.38;;;0.68;77.26
39949;BME280;29070;48.102;-1.652;2022-12-07T08:14:37;101901.81;;;0.72;77.06
39949;BME280;29070;48.102;-1.652;2022-12-07T08:19:37;101908.13;;;0.68;76.51
39949;BME280;29070;48.102;-1.652;2022-12-07T08:24:38;101909.38;;;0.75;76.93
39949;BME280;29070;48.102;-1.652;2022-12-07T08:29:38;101897.91;;;0.80;77.48
39949;BME280;29070;48.102;-1.652;2022-12-07T08:34:38;101909.31;;;0.90;77.04
39949;BME280;29070;48.102;-1.652;2022-12-07T08:39:39;101901.84;;;0.98;77.22
39949;BME280;29070;48.102;-1.652;2022-12-07T08:44:39;101892.03;;;1.03;77.01
39949;BME280;29070;48.102;-1.652;2022-12-07T08:49:43;101891.81;;;1.06;77.20
39949;BME280;29070;48.102;-1.652;2022-12-07T08:54:45;101888.59;;;1.16;77.65
39949;BME280;29070;48.102;-1.652;2022-12-07T08:59:45;101911.97;;;1.14;77.29
39949;BME280;29070;48.102;-1.652;2022-12-07T09:04:46;101909.63;;;1.11;77.11
39949;BME280;29070;48.102;-1.652;2022-12-07T09:09:46;101912.50;;;1.19;77.65
39949;BME280;29070;48.102;-1.652;2022-12-07T09:14:46;101901.53;;;1.28;77.85
39949;BME280;29070;48.102;-1.652;2022-12-07T09:19:47;101906.41;;;1.33;77.67
39949;BME280;29070;48.102;-1.652;2022-12-07T09:24:47;101909.16;;;1.43;77.94
39949;BME280;29070;48.102;-1.652;2022-12-07T09:29:47;101899.88;;;1.40;77.62
39949;BME280;29070;48.102;-1.652;2022-12-07T09:34:48;101893.34;;;1.47;77.25
39949;BME280;29070;48.102;-1.652;2022-12-07T09:39:48;101884.41;;;1.51;77.73
39949;BME280;29070;48.102;-1.652;2022-12-07T09:44:49;101876.25;;;1.58;77.83
39949;BME280;29070;48.102;-1.652;2022-12-07T09:49:49;101888.03;;;1.62;77.77
39949;BME280;29070;48.102;-1.652;2022-12-07T09:54:50;101889.16;;;1.70;78.00
39949;BME280;29070;48.102;-1.652;2022-12-07T09:59:51;101897.09;;;1.80;77.83
39949;BME280;29070;48.102;-1.652;2022-12-07T10:04:51;101889.22;;;1.82;77.74
39949;BME280;29070;48.102;-1.652;2022-12-07T10:09:52;101892.69;;;1.94;78.00
39949;BME280;29070;48.102;-1.652;2022-12-07T10:15:00;101890.38;;;2.02;77.93
39949;BME280;29070;48.102;-1.652;2022-12-07T10:25:19;101884.47;;;2.00;77.43
39949;BME280;29070;48.102;-1.652;2022-12-07T10:30:20;101888.34;;;1.94;77.56
39949;BME280;29070;48.102;-1.652;2022-12-07T10:35:27;101883.56;;;2.01;77.55
39949;BME280;29070;48.102;-1.652;2022-12-07T10:40:33;101881.72;;;2.14;77.89
39949;BME280;29070;48.102;-1.652;2022-12-07T10:45:35;101875.75;;;2.25;77.51
39949;BME280;29070;48.102;-1.652;2022-12-07T11:01:33;101862.53;;;2.52;77.80
39949;BME280;29070;48.102;-1.652;2022-12-07T11:06:41;101850.31;;;2.54;77.78
39949;BME280;29070;48.102;-1.652;2022-12-07T11:22:10;101838.09;;;2.67;77.91
39949;BME280;29070;48.102;-1.652;2022-12-07T11:37:35;101821.47;;;3.04;78.07
39949;BME280;29070;48.102;-1.652;2022-12-07T11:42:41;101816.88;;;3.08;77.89
39949;BME280;29070;48.102;-1.652;2022-12-07T11:47:48;101814.06;;;3.11;77.89
39949;BME280;29070;48.102;-1.652;2022-12-07T11:53:02;101807.69;;;3.26;77.87
39949;BME280;29070;48.102;-1.652;2022-12-07T12:03:36;101792.97;;;3.70;78.29
39949;BME280;29070;48.102;-1.652;2022-12-07T12:24:29;101761.78;;;4.03;77.92
39949;BME280;29070;48.102;-1.652;2022-12-07T12:29:39;101759.31;;;4.01;78.01
39949;BME280;29070;48.102;-1.652;2022-12-07T12:34:41;101759.03;;;4.04;77.88
39949;BME280;29070;48.102;-1.652;2022-12-07T12:50:35;101733.69;;;4.17;77.64
39949;BME280;29070;48.102;-1.652;2022-12-07T13:00:42;101716.56;;;4.36;77.69
39949;BME280;29070;48.102;-1.652;2022-12-07T13:05:42;101711.81;;;4.41;77.58
39949;BME280;29070;48.102;-1.652;2022-12-07T13:10:47;101710.56;;;4.45;77.57
39949;BME280;29070;48.102;-1.652;2022-12-07T13:31:47;101681.69;;;4.79;77.49
39949;BME280;29070;48.102;-1.652;2022-12-07T13:36:52;101671.56;;;4.86;77.22
39949;BME280;29070;48.102;-1.652;2022-12-07T13:41:57;101669.41;;;4.91;77.17
39949;BME280;29070;48.102;-1.652;2022-12-07T13:52:19;101649.97;;;4.85;76.72
39949;BME280;29070;48.102;-1.652;2022-12-07T13:57:21;101649.28;;;4.83;76.75
39949;BME280;29070;48.102;-1.652;2022-12-07T14:07:28;101635.16;;;4.86;76.64
39949;BME280;29070;48.102;-1.652;2022-12-07T14:12:30;101629.97;;;4.86;76.75
39949;BME280;29070;48.102;-1.652;2022-12-07T14:17:30;101624.50;;;4.89;77.04
39949;BME280;29070;48.102;-1.652;2022-12-07T14:22:38;101626.69;;;4.93;77.00
39949;BME280;29070;48.102;-1.652;2022-12-07T14:27:39;101619.84;;;4.92;76.92
39949;BME280;29070;48.102;-1.652;2022-12-07T14:32:50;101608.47;;;4.93;76.49
39949;BME280;29070;48.102;-1.652;2022-12-07T14:37:51;101610.13;;;4.94;76.66
39949;BME280;29070;48.102;-1.652;2022-12-07T14:43:03;101610.53;;;5.00;77.00
39949;BME280;29070;48.102;-1.652;2022-12-07T14:48:05;101602.44;;;5.22;77.97
39949;BME280;29070;48.102;-1.652;2022-12-07T14:58:16;101585.59;;;5.16;76.71
39949;BME280;29070;48.102;-1.652;2022-12-07T15:03:17;101587.78;;;5.11;76.14
39949;BME280;29070;48.102;-1.652;2022-12-07T15:08:18;101582.03;;;5.08;76.25
39949;BME280;29070;48.102;-1.652;2022-12-07T15:13:18;101579.06;;;5.03;76.16
39949;BME280;29070;48.102;-1.652;2022-12-07T15:18:37;101579.84;;;4.93;76.03
39949;BME280;29070;48.102;-1.652;2022-12-07T15:23:37;101568.09;;;4.89;76.12
39949;BME280;29070;48.102;-1.652;2022-12-07T15:28:38;101568.09;;;4.89;76.10
39949;BME280;29070;48.102;-1.652;2022-12-07T15:33:38;101564.00;;;4.87;76.14
39949;BME280;29070;48.102;-1.652;2022-12-07T15:38:38;101556.59;;;4.82;76.01
39949;BME280;29070;48.102;-1.652;2022-12-07T15:43:39;101565.88;;;4.65;75.71
39949;BME280;29070;48.102;-1.652;2022-12-07T15:48:58;101555.16;;;4.49;75.70
39949;BME280;29070;48.102;-1.652;2022-12-07T15:53:59;101552.69;;;4.37;75.83
39949;BME280;29070;48.102;-1.652;2022-12-07T15:58:59;101553.88;;;4.24;75.54
39949;BME280;29070;48.102;-1.652;2022-12-07T16:03:59;101545.25;;;4.13;75.67
39949;BME280;29070;48.102;-1.652;2022-12-07T16:09:00;101536.84;;;4.00;75.65
39949;BME280;29070;48.102;-1.652;2022-12-07T16:14:01;101539.94;;;3.84;75.40
39949;BME280;29070;48.102;-1.652;2022-12-07T16:19:01;101535.41;;;3.76;75.37
39949;BME280;29070;48.102;-1.652;2022-12-07T16:24:03;101533.84;;;3.64;75.36
39949;BME280;29070;48.102;-1.652;2022-12-07T16:29:05;101535.13;;;3.49;75.22
39949;BME280;29070;48.102;-1.652;2022-12-07T16:34:06;101526.72;;;3.35;75.62
39949;BME280;29070;48.102;-1.652;2022-12-07T16:39:08;101523.22;;;3.25;75.48
39949;BME280;29070;48.102;-1.652;2022-12-07T16:44:11;101517.56;;;3.10;75.66
39949;BME280;29070;48.102;-1.652;2022-12-07T16:49:16;101510.25;;;3.04;75.52
39949;BME280;29070;48.102;-1.652;2022-12-07T16:54:17;101521.09;;;2.88;75.27
39949;BME280;29070;48.102;-1.652;2022-12-07T16:59:17;101518.22;;;2.70;75.49
39949;BME280;29070;48.102;-1.652;2022-12-07T17:04:18;101528.47;;;2.60;75.51
39949;BME280;29070;48.102;-1.652;2022-12-07T17:09:18;101529.44;;;2.48;75.44
39949;BME280;29070;48.102;-1.652;2022-12-07T17:14:18;101521.47;;;2.40;75.43
39949;BME280;29070;48.102;-1.652;2022-12-07T17:19:37;101521.94;;;2.34;75.05
39949;BME280;29070;48.102;-1.652;2022-12-07T17:24:38;101517.16;;;2.18;74.66
39949;BME280;29070;48.102;-1.652;2022-12-07T17:29:39;101507.84;;;2.04;75.16
39949;BME280;29070;48.102;-1.652;2022-12-07T17:34:39;101504.56;;;2.02;75.30
39949;BME280;29070;48.102;-1.652;2022-12-07T17:39:39;101495.41;;;1.98;75.45
39949;BME280;29070;48.102;-1.652;2022-12-07T17:44:40;101497.53;;;1.93;75.54
39949;BME280;29070;48.102;-1.652;2022-12-07T17:49:41;101500.00;;;1.83;75.82
39949;BME280;29070;48.102;-1.652;2022-12-07T17:54:41;101493.19;;;1.82;75.33
39949;BME280;29070;48.102;-1.652;2022-12-07T17:59:42;101490.59;;;1.70;75.32
39949;BME280;29070;48.102;-1.652;2022-12-07T18:04:42;101485.19;;;1.62;75.49
39949;BME280;29070;48.102;-1.652;2022-12-07T18:09:43;101486.03;;;1.63;75.39
39949;BME280;29070;48.102;-1.652;2022-12-07T18:14:43;101492.56;;;1.56;75.31
39949;BME280;29070;48.102;-1.652;2022-12-07T18:19:44;101482.72;;;1.38;75.38
39949;BME280;29070;48.102;-1.652;2022-12-07T18:24:44;101474.47;;;1.33;75.85
39949;BME280;29070;48.102;-1.652;2022-12-07T18:29:45;101483.16;;;1.32;75.60
39949;BME280;29070;48.102;-1.652;2022-12-07T18:34:45;101480.09;;;1.27;75.92
39949;BME280;29070;48.102;-1.652;2022-12-07T18:39:45;101462.94;;;1.26;75.52
39949;BME280;29070;48.102;-1.652;2022-12-07T18:44:46;101472.09;;;1.19;75.94
39949;BME280;29070;48.102;-1.652;2022-12-07T18:49:46;101468.28;;;1.00;75.39
39949;BME280;29070;48.102;-1.652;2022-12-07T18:54:46;101459.34;;;0.93;75.49
39949;BME280;29070;48.102;-1.652;2022-12-07T18:59:47;101458.28;;;0.84;75.21
39949;BME280;29070;48.102;-1.652;2022-12-07T19:04:48;101447.56;;;0.78;75.58
39949;BME280;29070;48.102;-1.652;2022-12-07T19:09:49;101454.34;;;0.79;75.61
39949;BME280;29070;48.102;-1.652;2022-12-07T19:14:49;101453.06;;;0.73;75.93
39949;BME280;29070;48.102;-1.652;2022-12-07T19:19:50;101454.00;;;0.72;75.79
39949;BME280;29070;48.102;-1.652;2022-12-07T19:24:52;101439.78;;;0.66;76.05
39949;BME280;29070;48.102;-1.652;2022-12-07T19:29:53;101436.47;;;0.64;76.23
39949;BME280;29070;48.102;-1.652;2022-12-07T19:34:53;101437.06;;;0.68;76.72
39949;BME280;29070;48.102;-1.652;2022-12-07T19:39:55;101432.03;;;0.66;76.23
39949;BME280;29070;48.102;-1.652;2022-12-07T19:44:55;101429.66;;;0.63;76.45
39949;BME280;29070;48.102;-1.652;2022-12-07T19:49:56;101419.56;;;0.60;76.44
39949;BME280;29070;48.102;-1.652;2022-12-07T19:54:56;101419.75;;;0.57;76.32
39949;BME280;29070;48.102;-1.652;2022-12-07T19:59:57;101418.13;;;0.56;76.26
39949;BME280;29070;48.102;-1.652;2022-12-07T20:04:57;101407.63;;;0.46;75.71
39949;BME280;29070;48.102;-1.652;2022-12-07T20:09:58;101411.38;;;0.42;76.17
39949;BME280;29070;48.102;-1.652;2022-12-07T20:14:59;101414.28;;;0.37;75.78
39949;BME280;29070;48.102;-1.652;2022-12-07T20:19:59;101406.78;;;0.34;75.83
39949;BME280;29070;48.102;-1.652;2022-12-07T20:24:59;101409.13;;;0.37;76.81
39949;BME280;29070;48.102;-1.652;2022-12-07T20:30:00;101414.06;;;0.41;76.55
39949;BME280;29070;48.102;-1.652;2022-12-07T20:35:00;101406.44;;;0.39;76.78
39949;BME280;29070;48.102;-1.652;2022-12-07T20:40:01;101404.69;;;0.40;77.07
39949;BME280;29070;48.102;-1.652;2022-12-07T20:45:03;101393.41;;;0.41;76.63
39949;BME280;29070;48.102;-1.652;2022-12-07T20:50:05;101393.41;;;0.41;77.00
39949;BME280;29070;48.102;-1.652;2022-12-07T20:55:06;101392.50;;;0.42;76.95
39949;BME280;29070;48.102;-1.652;2022-12-07T21:00:07;101392.00;;;0.36;76.40
39949;BME280;29070;48.102;-1.652;2022-12-07T21:05:08;101401.84;;;0.31;76.91
39949;BME280;29070;48.102;-1.652;2022-12-07T21:10:09;101393.16;;;0.32;76.89
39949;BME280;29070;48.102;-1.652;2022-12-07T21:15:09;101398.09;;;0.35;77.25
39949;BME280;29070;48.102;-1.652;2022-12-07T21:20:12;101395.50;;;0.35;77.20
39949;BME280;29070;48.102;-1.652;2022-12-07T21:25:12;101387.41;;;0.29;77.02
39949;BME280;29070;48.102;-1.652;2022-12-07T21:30:13;101376.22;;;0.28;76.44
39949;BME280;29070;48.102;-1.652;2022-12-07T21:35:13;101377.50;;;0.23;76.82
39949;BME280;29070;48.102;-1.652;2022-12-07T21:40:13;101362.78;;;0.12;77.30
39949;BME280;29070;48.102;-1.652;2022-12-07T21:45:14;101367.94;;;0.12;77.21
39949;BME280;29070;48.102;-1.652;2022-12-07T21:50:14;101364.66;;;0.10;76.40
39949;BME280;29070;48.102;-1.652;2022-12-07T21:55:15;101353.75;;;0.06;76.71
39949;BME280;29070;48.102;-1.652;2022-12-07T22:00:16;101346.56;;;-0.02;76.92
39949;BME280;29070;48.102;-1.652;2022-12-07T22:05:16;101343.03;;;-0.01;76.39
39949;BME280;29070;48.102;-1.652;2022-12-07T22:10:16;101344.19;;;-0.05;76.95
39949;BME280;29070;48.102;-1.652;2022-12-07T22:15:27;101335.03;;;-0.09;76.62
39949;BME280;29070;48.102;-1.652;2022-12-07T22:20:28;101331.34;;;-0.17;76.38
39949;BME280;29070;48.102;-1.652;2022-12-07T22:25:28;101332.81;;;-0.26;76.14
39949;BME280;29070;48.102;-1.652;2022-12-07T22:30:29;101329.53;;;-0.28;76.07
39949;BME280;29070;48.102;-1.652;2022-12-07T22:35:29;101332.78;;;-0.37;75.91
39949;BME280;29070;48.102;-1.652;2022-12-07T22:40:30;101330.41;;;-0.41;76.46
39949;BME280;29070;48.102;-1.652;2022-12-07T22:45:30;101321.44;;;-0.48;76.19
39949;BME280;29070;48.102;-1.652;2022-12-07T22:50:31;101313.72;;;-0.48;76.50
39949;BME280;29070;48.102;-1.652;2022-12-07T22:55:31;101309.81;;;-0.53;76.29
39949;BME280;29070;48.102;-1.652;2022-12-07T23:00:32;101306.28;;;-0.52;76.36
39949;BME280;29070;48.102;-1.652;2022-12-07T23:05:32;101312.28;;;-0.52;76.51
39949;BME280;29070;48.102;-1.652;2022-12-07T23:10:33;101313.72;;;-0.48;76.57
39949;BME280;29070;48.102;-1.652;2022-12-07T23:15:35;101298.25;;;-0.48;77.17
39949;BME280;29070;48.102;-1.652;2022-12-07T23:20:35;101305.53;;;-0.42;77.07
39949;BME280;29070;48.102;-1.652;2022-12-07T23:25:36;101292.63;;;-0.42;76.61
39949;BME280;29070;48.102;-1.652;2022-12-07T23:30:36;101283.78;;;-0.37;77.04
39949;BME280;29070;48.102;-1.652;2022-12-07T23:35:36;101283.53;;;-0.34;77.29
39949;BME280;29070;48.102;-1.652;2022-12-07T23:40:37;101276.06;;;-0.26;77.13
39949;BME280;29070;48.102;-1.652;2022-12-07T23:45:37;101273.38;;;-0.25;77.58
39949;BME280;29070;48.102;-1.652;2022-12-07T23:50:37;101266.69;;;-0.27;77.64
39949;BME280;29070;48.102;-1.652;2022-12-07T23:55:43;101255.44;;;-0.26;77.64
